Terminal Aerodrome Forecast
Issued by NWS

Home | Current Version | Previous Version | Text Only | Print | Product List | Glossary On
Versions: 1 2 3 4 5 6 7 8 9 10 11 12
000
FTUS45 KTFX 211100
TAFHVR
TAF
KHVR 211140Z 2112/2212 VRB05KT P6SM SCT120
     FM211800 29015KT P6SM VCSH SCT070 BKN120
      TEMPO 2120/2124 -TSRA BKN050CB
     FM220000 25015G25KT P6SM -SHRA BKN050=

USA.gov is the U.S. government's official web portal to all federal, state and local government web resources and services.